Time;durP1;ratioP1;P1;durP2;ratioP2;P2;SDS_P1;SDS_P2;PMS_P1;PMS_P2;Temp;Humidity;BMP_temperature;BMP_pressure;BME280_temperature;BME280_humidity;BME280_pressure;Samples;Min_cycle;Max_cycle;Signal;HPM_P1;HPM_P2
2020/12/06 00:01:36;;;;;;;43.37;22.20;;;6.40;99.90;;;;;;4424426;32;20543;-74
2020/12/06 00:04:07;;;;;;;43.27;22.30;;;6.40;99.90;;;;;;4424489;32;20210;-74
2020/12/06 00:06:33;;;;;;;40.20;20.87;;;6.40;99.90;;;;;;4425346;32;20219;-74
2020/12/06 00:09:00;;;;;;;45.40;22.00;;;6.40;99.90;;;;;;4426012;32;20148;-74
2020/12/06 00:11:26;;;;;;;44.40;22.87;;;6.30;99.90;;;;;;4425990;32;20171;-74
2020/12/06 00:13:53;;;;;;;47.30;24.13;;;6.40;99.90;;;;;;4425813;32;20148;-74
2020/12/06 00:16:20;;;;;;;44.20;21.30;;;6.30;99.90;;;;;;4425941;32;20169;-74
2020/12/06 00:18:47;;;;;;;43.77;21.97;;;6.30;99.90;;;;;;4427348;32;20501;-74
2020/12/06 00:21:18;;;;;;;46.20;22.30;;;6.30;99.90;;;;;;4427434;32;20419;-75
2020/12/06 00:23:46;;;;;;;44.13;21.33;;;6.30;99.90;;;;;;4427281;32;20170;-74
2020/12/06 00:26:22;;;;;;;44.33;22.70;;;6.20;99.90;;;;;;4425091;32;20430;-75
2020/12/06 00:28:50;;;;;;;40.20;21.80;;;6.30;99.90;;;;;;4425844;32;20192;-75
2020/12/06 00:31:16;;;;;;;43.63;22.33;;;6.20;99.90;;;;;;4426040;32;20179;-76
2020/12/06 00:33:43;;;;;;;45.43;22.87;;;6.20;99.90;;;;;;4420486;32;20175;-74
2020/12/06 00:36:12;;;;;;;43.37;21.97;;;6.20;99.90;;;;;;4412981;32;20471;-77
2020/12/06 00:38:41;;;;;;;43.07;22.03;;;6.30;99.90;;;;;;4401924;32;20217;-74
2020/12/06 00:41:13;;;;;;;40.90;21.37;;;6.30;99.90;;;;;;4425527;32;20199;-75
2020/12/06 00:43:40;;;;;;;38.83;20.67;;;6.20;99.90;;;;;;4425463;32;20136;-74
2020/12/06 00:46:07;;;;;;;43.07;22.70;;;6.30;99.90;;;;;;4424141;32;20539;-75
2020/12/06 00:48:33;;;;;;;42.63;22.33;;;6.30;99.90;;;;;;4426270;32;20149;-75
2020/12/06 00:51:01;;;;;;;41.67;21.70;;;6.40;99.90;;;;;;4426838;32;20533;-75
2020/12/06 00:53:28;;;;;;;39.90;21.07;;;6.40;99.90;;;;;;4425423;32;20161;-75
2020/12/06 00:55:54;;;;;;;43.30;21.83;;;6.40;99.90;;;;;;4425026;32;20181;-75
2020/12/06 00:58:20;;;;;;;40.07;20.40;;;6.40;99.90;;;;;;4427184;32;20155;-75
2020/12/06 01:00:47;;;;;;;39.67;21.23;;;6.30;99.90;;;;;;4424782;32;20220;-75
2020/12/06 01:03:14;;;;;;;38.90;21.07;;;6.20;99.90;;;;;;4425218;32;20143;-76
2020/12/06 01:05:40;;;;;;;37.37;20.57;;;6.30;99.90;;;;;;4425208;32;20162;-75
2020/12/06 01:08:07;;;;;;;40.07;21.73;;;6.20;99.90;;;;;;4424985;32;20431;-75
2020/12/06 01:10:33;;;;;;;40.47;21.27;;;6.20;99.90;;;;;;4425095;32;20139;-75
2020/12/06 01:13:00;;;;;;;38.40;20.40;;;6.30;99.90;;;;;;4426282;32;20189;-75
2020/12/06 01:15:26;;;;;;;39.00;20.77;;;6.30;99.90;;;;;;4425191;32;20227;-76
2020/12/06 01:17:53;;;;;;;38.83;20.63;;;6.30;99.90;;;;;;4425204;32;20398;-76
2020/12/06 01:20:20;;;;;;;41.47;20.77;;;6.30;99.90;;;;;;4425959;32;20143;-74
2020/12/06 01:22:46;;;;;;;39.23;19.63;;;6.40;99.90;;;;;;4426009;32;20258;-76
2020/12/06 01:25:13;;;;;;;36.53;20.50;;;6.30;99.90;;;;;;4424917;32;20148;-75
2020/12/06 01:27:39;;;;;;;38.77;20.13;;;6.30;99.90;;;;;;4425426;32;20136;-75
2020/12/06 01:30:06;;;;;;;36.23;19.90;;;6.30;99.90;;;;;;4426316;32;20168;-76
2020/12/06 01:32:33;;;;;;;40.23;20.80;;;6.30;99.90;;;;;;4424191;32;20186;-75
2020/12/06 01:35:04;;;;;;;40.90;20.30;;;6.30;99.90;;;;;;4425044;32;20262;-75
2020/12/06 01:37:31;;;;;;;38.43;21.00;;;6.30;99.90;;;;;;4424814;32;20151;-76
2020/12/06 01:39:57;;;;;;;37.70;20.50;;;6.30;99.90;;;;;;4426212;32;20469;-76
2020/12/06 01:42:24;;;;;;;36.87;19.53;;;6.30;99.90;;;;;;4423647;32;20438;-75
2020/12/06 01:45:00;;;;;;;40.03;20.50;;;6.30;99.90;;;;;;4424695;32;20135;-74
2020/12/06 01:47:28;;;;;;;38.03;19.77;;;6.30;99.90;;;;;;4424779;32;20224;-76
2020/12/06 01:49:55;;;;;;;37.40;20.03;;;6.30;99.90;;;;;;4426162;32;20167;-76
2020/12/06 01:52:22;;;;;;;35.90;19.33;;;6.30;99.90;;;;;;4426035;32;20143;-75
2020/12/06 01:54:49;;;;;;;37.37;20.00;;;6.30;99.90;;;;;;4424868;32;20498;-76
2020/12/06 01:57:16;;;;;;;35.90;19.00;;;6.40;99.90;;;;;;4424480;32;20374;-75
2020/12/06 01:59:43;;;;;;;39.03;19.77;;;6.40;99.90;;;;;;4426310;32;20143;-74
2020/12/06 02:02:09;;;;;;;37.73;19.43;;;6.30;99.90;;;;;;4426003;32;20431;-74
2020/12/06 02:04:35;;;;;;;36.63;18.30;;;6.30;99.90;;;;;;4424421;32;20463;-74
2020/12/06 02:07:02;;;;;;;37.60;19.87;;;6.30;99.90;;;;;;4425944;32;20148;-74
2020/12/06 02:09:31;;;;;;;38.90;20.40;;;6.30;99.90;;;;;;4424458;32;20401;-74
2020/12/06 02:11:58;;;;;;;37.07;19.63;;;6.30;99.90;;;;;;4424491;32;20147;-74
2020/12/06 02:14:26;;;;;;;34.17;19.20;;;6.30;99.90;;;;;;4424380;32;20215;-74
2020/12/06 02:16:55;;;;;;;38.40;19.57;;;6.30;99.90;;;;;;4426005;32;20172;-74
2020/12/06 02:19:22;;;;;;;37.10;19.73;;;6.30;99.90;;;;;;4425780;32;20181;-74
2020/12/06 02:21:49;;;;;;;35.60;18.50;;;6.30;99.90;;;;;;4418566;32;20428;-74
2020/12/06 02:24:17;;;;;;;33.93;18.47;;;6.30;99.90;;;;;;4409088;32;20146;-73
2020/12/06 02:26:48;;;;;;;34.37;19.00;;;6.40;99.90;;;;;;4408854;32;20507;-73
2020/12/06 02:29:16;;;;;;;36.43;19.00;;;6.30;99.90;;;;;;4409099;32;20196;-74
2020/12/06 02:31:42;;;;;;;41.20;19.90;;;6.40;99.90;;;;;;4409148;32;20161;-73
2020/12/06 02:34:10;;;;;;;40.23;19.87;;;6.30;99.90;;;;;;4409710;32;20173;-73
2020/12/06 02:36:37;;;;;;;38.40;20.23;;;6.30;99.90;;;;;;4409172;32;20264;-74
2020/12/06 02:39:06;;;;;;;35.10;19.23;;;6.30;99.90;;;;;;4408903;32;20237;-73
2020/12/06 02:41:43;;;;;;;38.23;19.20;;;6.30;99.90;;;;;;4410527;32;20190;-73
2020/12/06 02:44:13;;;;;;;35.77;18.63;;;6.30;99.90;;;;;;4410128;32;20141;-74
2020/12/06 02:46:40;;;;;;;38.17;19.80;;;6.40;99.90;;;;;;4410127;32;20144;-73
2020/12/06 02:49:07;;;;;;;35.73;19.40;;;6.30;99.90;;;;;;4410366;32;20248;-73
2020/12/06 02:51:35;;;;;;;36.60;19.53;;;6.30;99.90;;;;;;4411990;32;20192;-73
2020/12/06 02:54:01;;;;;;;36.73;19.60;;;6.40;99.90;;;;;;4411984;32;20144;-74
2020/12/06 02:56:28;;;;;;;39.90;20.97;;;6.30;99.90;;;;;;4413418;32;20496;-74
2020/12/06 02:58:55;;;;;;;39.80;20.07;;;6.40;99.90;;;;;;4411771;32;20203;-74
2020/12/06 03:01:21;;;;;;;40.83;20.17;;;6.40;99.90;;;;;;4413341;32;20175;-74
2020/12/06 03:03:48;;;;;;;42.70;20.23;;;6.40;99.90;;;;;;4413327;32;20151;-75
2020/12/06 03:06:14;;;;;;;37.40;19.97;;;6.40;99.90;;;;;;4413352;32;20167;-73
2020/12/06 03:08:40;;;;;;;38.30;20.03;;;6.40;99.90;;;;;;4412869;32;20153;-74
2020/12/06 03:11:08;;;;;;;37.80;19.93;;;6.40;99.90;;;;;;4411796;32;20179;-74
2020/12/06 03:13:35;;;;;;;37.53;19.63;;;6.40;99.90;;;;;;4411660;32;20147;-75
2020/12/06 03:16:03;;;;;;;39.17;19.77;;;6.40;99.90;;;;;;4413155;32;20166;-74
2020/12/06 03:18:30;;;;;;;36.63;20.00;;;6.50;99.90;;;;;;4413052;32;20208;-74
2020/12/06 03:20:56;;;;;;;39.17;20.00;;;6.40;99.90;;;;;;4411645;32;20179;-73
2020/12/06 03:23:23;;;;;;;37.40;19.87;;;6.40;99.90;;;;;;4411548;32;20171;-74
2020/12/06 03:25:49;;;;;;;38.27;19.87;;;6.50;99.90;;;;;;4411798;32;20209;-74
2020/12/06 03:28:16;;;;;;;39.13;19.40;;;6.40;99.90;;;;;;4413458;32;20143;-75
2020/12/06 03:30:42;;;;;;;36.10;19.47;;;6.40;99.90;;;;;;4411778;32;20215;-75
2020/12/06 03:33:09;;;;;;;38.00;18.87;;;6.50;99.90;;;;;;4411119;32;20183;-74
2020/12/06 03:35:35;;;;;;;33.27;18.60;;;6.50;99.90;;;;;;4412974;32;20186;-74
2020/12/06 03:38:02;;;;;;;34.90;18.77;;;6.60;99.90;;;;;;4411257;32;20214;-74
2020/12/06 03:40:29;;;;;;;36.03;19.33;;;6.50;99.90;;;;;;4411133;32;20156;-74
2020/12/06 03:42:55;;;;;;;34.37;18.77;;;6.50;99.90;;;;;;4412232;32;20152;-74
2020/12/06 03:45:22;;;;;;;41.13;19.60;;;6.50;99.90;;;;;;4411264;32;20392;-74
2020/12/06 03:47:48;;;;;;;34.93;18.40;;;6.50;99.90;;;;;;4411261;32;20167;-74
2020/12/06 03:50:15;;;;;;;34.20;19.10;;;6.50;99.90;;;;;;4411159;32;20144;-74
2020/12/06 03:52:41;;;;;;;34.57;18.43;;;6.40;99.90;;;;;;4412647;32;20151;-73
2020/12/06 03:55:08;;;;;;;37.33;18.67;;;6.40;99.90;;;;;;4411163;32;20146;-73
2020/12/06 03:57:34;;;;;;;32.67;18.83;;;6.40;99.90;;;;;;4410978;32;20151;-75
2020/12/06 04:00:01;;;;;;;34.93;19.00;;;6.50;99.90;;;;;;4411034;32;20384;-74
2020/12/06 04:02:27;;;;;;;36.80;19.30;;;6.50;99.90;;;;;;4412530;32;20140;-74
2020/12/06 04:04:55;;;;;;;36.73;18.87;;;6.40;99.90;;;;;;4412455;32;20156;-73
2020/12/06 04:07:21;;;;;;;36.83;19.17;;;6.50;99.90;;;;;;4412471;32;20161;-74
2020/12/06 04:09:48;;;;;;;34.50;18.33;;;6.50;99.90;;;;;;4411025;32;20143;-74
2020/12/06 04:12:14;;;;;;;35.60;19.20;;;6.40;99.90;;;;;;4410900;32;20482;-74
2020/12/06 04:14:41;;;;;;;36.50;18.80;;;6.40;99.90;;;;;;4410815;32;20167;-74
2020/12/06 04:17:08;;;;;;;33.77;17.90;;;6.40;99.90;;;;;;4410823;32;20465;-75
2020/12/06 04:19:34;;;;;;;30.83;17.13;;;6.40;99.90;;;;;;4410759;32;20185;-75
2020/12/06 04:22:05;;;;;;;34.47;18.03;;;6.30;99.90;;;;;;4410775;32;20466;-75
2020/12/06 04:24:33;;;;;;;33.90;18.20;;;6.30;99.90;;;;;;4411050;32;20373;-75
2020/12/06 04:27:00;;;;;;;32.83;18.37;;;6.30;99.90;;;;;;4412210;32;20164;-75
2020/12/06 04:29:27;;;;;;;32.80;17.83;;;6.30;99.90;;;;;;4411190;32;20420;-75
2020/12/06 04:31:54;;;;;;;33.43;18.03;;;6.30;99.90;;;;;;4410425;32;20166;-75
2020/12/06 04:34:20;;;;;;;31.80;18.13;;;6.30;99.90;;;;;;4410621;32;20491;-75
2020/12/06 04:36:47;;;;;;;33.10;18.07;;;6.30;99.90;;;;;;4410650;32;20239;-74
2020/12/06 04:39:13;;;;;;;31.73;17.43;;;6.40;99.90;;;;;;4410298;32;20179;-74
2020/12/06 04:41:40;;;;;;;32.73;17.53;;;6.40;99.90;;;;;;4410760;32;20150;-75
2020/12/06 04:44:07;;;;;;;33.73;17.60;;;6.40;99.90;;;;;;4410461;32;20183;-74
2020/12/06 04:46:37;;;;;;;32.40;17.50;;;6.40;99.90;;;;;;4410390;32;20199;-75
2020/12/06 04:49:07;;;;;;;32.20;17.13;;;6.30;99.90;;;;;;4411879;32;20164;-73
2020/12/06 04:51:43;;;;;;;32.57;17.67;;;6.30;99.90;;;;;;4412080;32;20175;-75
2020/12/06 04:54:11;;;;;;;30.07;17.03;;;6.20;99.90;;;;;;4411822;32;20371;-75
2020/12/06 04:56:38;;;;;;;33.37;17.40;;;6.20;99.90;;;;;;4411726;32;20171;-75
2020/12/06 04:59:06;;;;;;;29.40;16.67;;;6.20;99.90;;;;;;4410152;32;20231;-74
2020/12/06 05:01:33;;;;;;;29.37;16.70;;;6.10;99.90;;;;;;4411699;32;20397;-74
2020/12/06 05:04:12;;;;;;;29.87;16.93;;;6.10;99.90;;;;;;4410240;32;20154;-74
2020/12/06 05:06:40;;;;;;;30.03;16.60;;;6.10;99.90;;;;;;4410203;32;20185;-74
2020/12/06 05:09:14;;;;;;;28.37;16.07;;;6.10;99.90;;;;;;4410916;32;20181;-75
2020/12/06 05:11:43;;;;;;;28.20;15.63;;;6.10;99.90;;;;;;4409998;32;20470;-73
2020/12/06 05:14:10;;;;;;;30.70;16.50;;;6.00;99.90;;;;;;4409701;32;20260;-73
2020/12/06 05:16:38;;;;;;;28.20;15.93;;;6.00;99.90;;;;;;4410243;32;20196;-73
2020/12/06 05:19:11;;;;;;;29.13;16.50;;;6.00;99.90;;;;;;4411320;32;20157;-74
2020/12/06 05:21:42;;;;;;;27.97;16.00;;;6.00;99.90;;;;;;4411704;32;20407;-74
2020/12/06 05:24:08;;;;;;;28.43;15.07;;;5.90;99.90;;;;;;4411344;32;20152;-74
2020/12/06 05:26:35;;;;;;;28.57;16.57;;;5.90;99.90;;;;;;4409790;32;20391;-74
2020/12/06 05:29:03;;;;;;;27.00;15.13;;;6.00;99.90;;;;;;4411282;32;20200;-74
2020/12/06 05:31:30;;;;;;;25.37;15.20;;;5.90;99.90;;;;;;4409516;32;20183;-74
2020/12/06 05:33:57;;;;;;;24.87;14.73;;;5.90;99.90;;;;;;4410875;32;20251;-75
2020/12/06 05:36:23;;;;;;;27.17;14.70;;;5.90;99.90;;;;;;4410721;32;20208;-75
2020/12/06 05:38:50;;;;;;;24.53;14.97;;;5.90;99.90;;;;;;4409577;32;20447;-75
2020/12/06 05:41:17;;;;;;;25.73;15.00;;;5.90;99.90;;;;;;4409584;32;20155;-74
2020/12/06 05:43:44;;;;;;;24.87;14.37;;;5.90;99.90;;;;;;4409940;32;20145;-74
2020/12/06 05:46:13;;;;;;;24.90;14.83;;;5.90;99.90;;;;;;4409677;32;20149;-74
2020/12/06 05:48:40;;;;;;;24.60;14.50;;;5.80;99.90;;;;;;4409534;32;20140;-75
2020/12/06 05:51:08;;;;;;;27.17;15.40;;;5.80;99.90;;;;;;4409512;32;20439;-74
2020/12/06 05:53:35;;;;;;;27.17;15.80;;;5.80;99.90;;;;;;4411164;32;20148;-75
2020/12/06 05:56:13;;;;;;;23.33;14.33;;;5.90;99.90;;;;;;4409416;32;20181;-74
2020/12/06 05:58:44;;;;;;;24.90;14.57;;;5.80;99.90;;;;;;4410899;32;20151;-75
2020/12/06 06:01:11;;;;;;;24.60;14.60;;;5.80;99.90;;;;;;4410861;32;20258;-75
2020/12/06 06:03:41;;;;;;;24.77;14.47;;;5.90;99.90;;;;;;4409396;32;20140;-75
2020/12/06 06:06:08;;;;;;;23.83;14.27;;;5.90;99.90;;;;;;4409404;32;20170;-75
2020/12/06 06:08:36;;;;;;;24.87;14.33;;;5.90;99.90;;;;;;4409246;32;20368;-74
2020/12/06 06:11:26;;;;;;;24.30;14.23;;;5.90;99.90;;;;;;4409282;32;20145;-74
2020/12/06 06:14:11;;;;;;;23.93;14.40;;;5.80;99.90;;;;;;4410813;32;20400;-75
2020/12/06 06:16:38;;;;;;;22.07;13.10;;;5.80;99.90;;;;;;4410728;32;20170;-76
2020/12/06 06:19:06;;;;;;;26.27;14.87;;;5.70;99.90;;;;;;4409141;32;20456;-75
2020/12/06 06:21:43;;;;;;;23.57;13.53;;;5.70;99.90;;;;;;4409226;32;20152;-75
2020/12/06 06:24:13;;;;;;;24.20;13.53;;;5.70;99.90;;;;;;4410956;32;20165;-75
2020/12/06 06:26:43;;;;;;;21.97;13.70;;;5.80;99.90;;;;;;4412553;32;20147;-75
2020/12/06 06:29:11;;;;;;;23.90;14.13;;;5.70;99.90;;;;;;4413819;32;20198;-73
2020/12/06 06:31:39;;;;;;;21.10;13.23;;;5.70;99.90;;;;;;4412585;32;20210;-74
2020/12/06 06:34:07;;;;;;;23.87;13.33;;;5.70;99.90;;;;;;4413755;32;20145;-74
2020/12/06 06:36:36;;;;;;;25.07;13.97;;;5.70;99.90;;;;;;4413706;32;20143;-74
2020/12/06 06:39:04;;;;;;;22.23;13.50;;;5.60;99.90;;;;;;4412365;32;20173;-74
2020/12/06 06:41:33;;;;;;;22.40;13.00;;;5.60;99.90;;;;;;4412675;32;20168;-74
2020/12/06 06:44:02;;;;;;;21.00;13.13;;;5.60;99.90;;;;;;4413654;32;20183;-73
2020/12/06 06:46:34;;;;;;;20.60;12.97;;;5.60;99.90;;;;;;4413555;32;20175;-75
2020/12/06 06:49:09;;;;;;;20.43;12.13;;;5.70;99.90;;;;;;4412088;32;20168;-74
2020/12/06 06:51:36;;;;;;;19.83;12.80;;;5.60;99.90;;;;;;4412513;32;20169;-74
2020/12/06 06:54:06;;;;;;;21.63;12.77;;;5.60;99.90;;;;;;4412021;32;20472;-74
2020/12/06 06:56:48;;;;;;;21.13;13.17;;;5.60;99.90;;;;;;4412186;32;20140;-74
2020/12/06 06:59:15;;;;;;;20.60;12.63;;;5.60;99.90;;;;;;4413341;32;20402;-75
2020/12/06 07:01:48;;;;;;;18.80;12.73;;;5.60;99.90;;;;;;4412131;32;20190;-74
2020/12/06 07:04:21;;;;;;;21.27;12.90;;;5.60;99.90;;;;;;4413347;32;20165;-74
2020/12/06 07:06:50;;;;;;;21.40;12.47;;;5.60;99.90;;;;;;4412577;32;20197;-74
2020/12/06 07:09:25;;;;;;;19.80;12.60;;;5.60;99.90;;;;;;4411561;32;20350;-74
2020/12/06 07:11:57;;;;;;;19.60;12.27;;;5.60;99.90;;;;;;4411195;32;20146;-74
2020/12/06 07:14:26;;;;;;;22.03;12.97;;;5.60;99.90;;;;;;4411650;32;20159;-74
2020/12/06 07:16:54;;;;;;;18.70;12.23;;;5.50;99.90;;;;;;4411657;32;20181;-72
2020/12/06 07:19:21;;;;;;;17.90;11.67;;;5.50;99.90;;;;;;4411560;32;20509;-74
2020/12/06 07:21:49;;;;;;;20.00;12.70;;;5.60;99.90;;;;;;4413082;32;20209;-74
2020/12/06 07:24:17;;;;;;;19.50;11.73;;;5.60;99.90;;;;;;4411452;32;20153;-74
2020/12/06 07:26:46;;;;;;;19.97;12.10;;;5.50;99.90;;;;;;4411457;32;20143;-75
2020/12/06 07:29:13;;;;;;;20.83;12.77;;;5.60;99.90;;;;;;4411405;32;20449;-75
2020/12/06 07:31:40;;;;;;;19.03;12.37;;;5.60;99.90;;;;;;4412574;32;20174;-75
2020/12/06 07:34:06;;;;;;;19.17;12.40;;;5.60;99.90;;;;;;4411270;32;20156;-74
2020/12/06 07:36:34;;;;;;;19.63;12.30;;;5.60;99.90;;;;;;4411221;32;20172;-76
2020/12/06 07:39:13;;;;;;;19.60;12.67;;;5.60;99.90;;;;;;4411560;32;20167;-74
2020/12/06 07:41:47;;;;;;;21.53;12.80;;;5.60;99.90;;;;;;4411086;32;20431;-74
2020/12/06 07:44:13;;;;;;;20.20;12.50;;;5.60;99.90;;;;;;4412443;32;20196;-75
2020/12/06 07:46:40;;;;;;;20.00;13.07;;;5.60;99.90;;;;;;4412519;32;20474;-75
2020/12/06 07:49:06;;;;;;;21.03;13.03;;;5.50;99.90;;;;;;4411008;32;20174;-75
2020/12/06 07:51:33;;;;;;;22.60;13.43;;;5.60;99.90;;;;;;4410356;32;20181;-75
2020/12/06 07:54:03;;;;;;;19.57;12.83;;;5.60;99.90;;;;;;4412427;32;20388;-75
2020/12/06 07:56:30;;;;;;;17.83;12.13;;;5.60;99.90;;;;;;4412374;32;20183;-75
2020/12/06 07:59:03;;;;;;;18.77;12.17;;;5.70;99.90;;;;;;4412386;32;20174;-75
2020/12/06 08:01:30;;;;;;;17.60;11.73;;;5.70;99.90;;;;;;4410895;32;20169;-75
2020/12/06 08:03:57;;;;;;;19.23;12.03;;;5.60;99.90;;;;;;4410779;32;20163;-74
2020/12/06 08:06:28;;;;;;;17.63;11.53;;;5.60;99.90;;;;;;4410756;32;20198;-75
2020/12/06 08:09:00;;;;;;;19.03;11.23;;;5.60;99.90;;;;;;4410736;32;20148;-74
2020/12/06 08:11:35;;;;;;;17.53;11.50;;;5.50;99.90;;;;;;4412195;32;20195;-73
2020/12/06 08:14:03;;;;;;;17.80;11.30;;;5.50;99.90;;;;;;4411620;32;20146;-73
2020/12/06 08:16:30;;;;;;;17.53;11.90;;;5.50;99.90;;;;;;4410693;32;20158;-75
2020/12/06 08:19:01;;;;;;;19.33;12.27;;;5.60;99.90;;;;;;4410407;32;20228;-74
2020/12/06 08:21:40;;;;;;;18.03;10.80;;;5.50;99.90;;;;;;4412409;32;20544;-74
2020/12/06 08:24:24;;;;;;;18.27;11.03;;;5.50;99.90;;;;;;4412035;32;20540;-72
2020/12/06 08:26:51;;;;;;;19.47;11.67;;;5.50;99.90;;;;;;4410531;32;20188;-74
2020/12/06 08:29:18;;;;;;;21.60;11.50;;;5.50;99.90;;;;;;4411059;32;20166;-75
2020/12/06 08:31:46;;;;;;;17.83;11.43;;;5.40;99.90;;;;;;4410390;32;20194;-74
2020/12/06 08:34:15;;;;;;;18.70;11.27;;;5.40;99.90;;;;;;4410519;32;20204;-75
2020/12/06 08:36:42;;;;;;;16.97;11.07;;;5.40;99.90;;;;;;4410419;32;20493;-75
2020/12/06 08:39:22;;;;;;;19.97;11.83;;;5.40;99.90;;;;;;4410324;32;20204;-74
2020/12/06 08:41:49;;;;;;;17.53;11.33;;;5.40;99.90;;;;;;4409346;32;20545;-73
2020/12/06 08:44:16;;;;;;;18.13;11.20;;;5.50;99.90;;;;;;4411746;32;20148;-74
2020/12/06 08:46:52;;;;;;;17.03;11.00;;;5.50;99.90;;;;;;4409595;32;20166;-76
2020/12/06 08:49:23;;;;;;;17.27;10.90;;;5.50;99.90;;;;;;4410531;32;20215;-75
2020/12/06 08:51:52;;;;;;;18.33;11.47;;;5.60;99.90;;;;;;4410440;32;20139;-75
2020/12/06 08:54:37;;;;;;;15.67;10.60;;;5.50;99.90;;;;;;4410007;32;20147;-76
2020/12/06 08:57:10;;;;;;;15.17;10.37;;;5.50;99.90;;;;;;4411193;32;20158;-75
2020/12/06 08:59:37;;;;;;;15.53;10.07;;;5.40;99.90;;;;;;4410059;32;20428;-73
2020/12/06 09:02:05;;;;;;;18.30;11.00;;;5.40;99.90;;;;;;4410865;32;20351;-74
2020/12/06 09:04:33;;;;;;;18.50;11.33;;;5.30;99.90;;;;;;4410507;32;20144;-72
2020/12/06 09:07:00;;;;;;;18.63;11.83;;;5.30;99.90;;;;;;4411320;32;20405;-75
2020/12/06 09:09:26;;;;;;;17.10;10.80;;;5.30;99.90;;;;;;4409822;32;20165;-75
2020/12/06 09:11:54;;;;;;;17.77;11.03;;;5.40;99.90;;;;;;4409756;32;20174;-74
2020/12/06 09:14:21;;;;;;;17.37;10.93;;;5.30;99.90;;;;;;4410652;32;20148;-75
2020/12/06 09:16:48;;;;;;;17.73;11.03;;;5.30;99.90;;;;;;4409619;32;20243;-74
2020/12/06 09:19:14;;;;;;;17.00;11.07;;;5.30;99.90;;;;;;4409476;32;20174;-74
2020/12/06 09:21:42;;;;;;;17.47;11.40;;;5.30;99.90;;;;;;4409671;32;20447;-74
2020/12/06 09:24:08;;;;;;;17.40;10.63;;;5.30;99.90;;;;;;4408738;32;20163;-75
2020/12/06 09:26:35;;;;;;;17.13;11.10;;;5.40;99.90;;;;;;4409484;32;20159;-74
2020/12/06 09:29:01;;;;;;;18.27;10.90;;;5.40;99.90;;;;;;4409464;32;20148;-75
2020/12/06 09:31:28;;;;;;;20.20;10.70;;;5.40;99.90;;;;;;4408746;32;20162;-73
2020/12/06 09:33:54;;;;;;;18.27;10.63;;;5.40;99.90;;;;;;4409373;32;20388;-74
2020/12/06 09:36:21;;;;;;;18.03;10.80;;;5.50;99.90;;;;;;4409203;32;20426;-74
2020/12/06 09:38:47;;;;;;;16.67;10.63;;;5.40;99.90;;;;;;4408896;32;20517;-76
2020/12/06 09:41:14;;;;;;;14.20;9.83;;;5.50;99.90;;;;;;4410248;32;20143;-75
2020/12/06 09:43:43;;;;;;;16.00;10.57;;;5.60;99.90;;;;;;4409290;32;20166;-76
2020/12/06 09:46:11;;;;;;;16.43;10.60;;;5.60;99.90;;;;;;4409197;32;20162;-73
2020/12/06 09:48:38;;;;;;;16.73;10.03;;;5.60;99.90;;;;;;4410774;32;20217;-74
2020/12/06 09:51:06;;;;;;;18.60;10.10;;;5.50;99.90;;;;;;4409304;32;20144;-75
2020/12/06 09:53:32;;;;;;;14.53;9.50;;;5.50;99.90;;;;;;4409148;32;20391;-73
2020/12/06 09:55:59;;;;;;;15.40;10.33;;;5.40;99.90;;;;;;4409076;32;20164;-73
2020/12/06 09:58:25;;;;;;;16.17;10.37;;;5.40;99.90;;;;;;4408984;32;20169;-73
2020/12/06 10:00:52;;;;;;;16.90;10.07;;;5.50;99.90;;;;;;4409134;32;20146;-75
2020/12/06 10:03:18;;;;;;;16.70;10.00;;;5.40;99.90;;;;;;4409253;32;20199;-73
2020/12/06 10:05:45;;;;;;;14.27;9.37;;;5.30;99.90;;;;;;4409127;32;20185;-74
2020/12/06 10:08:11;;;;;;;15.57;10.20;;;5.20;99.90;;;;;;4409400;32;20148;-74
2020/12/06 10:10:38;;;;;;;13.63;9.70;;;5.30;99.90;;;;;;4410248;32;20230;-75
2020/12/06 10:13:04;;;;;;;13.50;9.50;;;5.30;99.90;;;;;;4410457;32;20375;-74
2020/12/06 10:15:30;;;;;;;15.07;9.23;;;5.30;99.90;;;;;;4408562;32;20138;-76
2020/12/06 10:17:57;;;;;;;17.50;10.50;;;5.30;99.90;;;;;;4410344;32;20513;-74
2020/12/06 10:20:24;;;;;;;15.30;9.47;;;5.40;99.90;;;;;;4408990;32;20201;-74
2020/12/06 10:22:50;;;;;;;14.97;9.43;;;5.40;99.90;;;;;;4409060;32;20197;-73
2020/12/06 10:25:16;;;;;;;15.37;9.53;;;5.40;99.90;;;;;;4410789;32;20166;-74
2020/12/06 10:27:43;;;;;;;15.67;9.73;;;5.40;99.90;;;;;;4408935;32;20210;-74
2020/12/06 10:30:09;;;;;;;15.30;9.70;;;5.50;99.90;;;;;;4408792;32;20167;-74
2020/12/06 10:32:36;;;;;;;16.20;10.53;;;5.40;99.90;;;;;;4408772;32;20164;-73
2020/12/06 10:35:03;;;;;;;16.13;9.20;;;5.40;99.90;;;;;;4408468;32;20143;-75
2020/12/06 10:37:29;;;;;;;15.40;9.30;;;5.30;99.90;;;;;;4410322;32;20142;-76
2020/12/06 10:39:56;;;;;;;13.43;9.03;;;5.30;99.90;;;;;;4410294;32;20457;-75
2020/12/06 10:42:22;;;;;;;13.67;8.87;;;5.30;99.90;;;;;;4409542;32;20182;-76
2020/12/06 10:44:49;;;;;;;13.50;8.80;;;5.30;99.90;;;;;;4409883;32;20173;-74
2020/12/06 10:47:18;;;;;;;15.17;8.97;;;5.20;99.90;;;;;;4410381;32;20199;-74
2020/12/06 10:49:45;;;;;;;15.63;9.40;;;5.20;99.90;;;;;;4408335;32;20166;-74
2020/12/06 10:52:12;;;;;;;12.73;8.63;;;5.20;99.90;;;;;;4409243;32;20199;-77
2020/12/06 10:54:39;;;;;;;17.07;8.90;;;5.30;99.90;;;;;;4408389;32;20546;-75
2020/12/06 10:57:06;;;;;;;15.73;9.67;;;5.30;99.90;;;;;;4408846;32;20166;-74
2020/12/06 10:59:35;;;;;;;16.80;9.77;;;5.40;99.90;;;;;;4408807;32;20145;-74
2020/12/06 11:02:02;;;;;;;15.60;10.07;;;5.30;99.90;;;;;;4408640;32;20140;-75
2020/12/06 11:04:29;;;;;;;16.93;10.17;;;5.30;99.90;;;;;;4408732;32;20139;-74
2020/12/06 11:06:59;;;;;;;16.07;9.90;;;5.30;99.90;;;;;;4408815;32;20168;-75
2020/12/06 11:09:26;;;;;;;17.80;10.00;;;5.30;99.90;;;;;;4409031;32;20194;-70
2020/12/06 11:11:54;;;;;;;16.10;9.33;;;5.40;99.90;;;;;;4411598;32;20191;-70
2020/12/06 11:14:21;;;;;;;14.87;9.27;;;5.50;99.90;;;;;;4411416;32;20153;-70
2020/12/06 11:16:51;;;;;;;14.63;9.37;;;5.60;99.90;;;;;;4412963;32;20182;-71
2020/12/06 11:19:18;;;;;;;15.77;9.67;;;5.50;99.90;;;;;;4411427;32;20150;-71
2020/12/06 11:21:44;;;;;;;15.50;9.40;;;5.50;99.90;;;;;;4411447;32;20165;-71
2020/12/06 11:24:11;;;;;;;16.67;9.90;;;5.60;99.90;;;;;;4410702;32;20182;-71
2020/12/06 11:26:38;;;;;;;16.13;10.13;;;5.60;99.90;;;;;;4411079;32;20538;-72
2020/12/06 11:29:04;;;;;;;19.10;10.30;;;5.60;99.90;;;;;;4412780;32;20152;-71
2020/12/06 11:31:31;;;;;;;16.20;9.43;;;5.60;99.90;;;;;;4411396;32;20153;-71
2020/12/06 11:33:58;;;;;;;17.70;9.73;;;5.60;99.90;;;;;;4411076;32;20141;-71
2020/12/06 11:36:24;;;;;;;16.60;10.17;;;5.60;99.90;;;;;;4412680;32;20471;-71
2020/12/06 11:38:51;;;;;;;15.73;9.73;;;5.60;99.90;;;;;;4412733;32;20179;-71
2020/12/06 11:41:17;;;;;;;17.33;10.40;;;5.60;99.90;;;;;;4411102;32;20502;-73
2020/12/06 11:43:44;;;;;;;16.37;10.07;;;5.60;99.90;;;;;;4411062;32;20170;-73
2020/12/06 11:46:10;;;;;;;18.90;10.77;;;5.60;99.90;;;;;;4411071;32;20197;-74
2020/12/06 11:48:36;;;;;;;17.63;10.43;;;5.60;99.90;;;;;;4411037;32;20159;-74
2020/12/06 11:51:04;;;;;;;17.63;10.63;;;5.50;99.90;;;;;;4410993;32;20168;-75
2020/12/06 11:53:30;;;;;;;20.20;10.97;;;5.50;99.90;;;;;;4411142;32;20151;-74
2020/12/06 11:55:57;;;;;;;20.50;11.13;;;5.30;99.90;;;;;;4411056;32;20199;-74
2020/12/06 11:58:24;;;;;;;17.50;10.50;;;5.30;99.90;;;;;;4410904;32;20196;-75
2020/12/06 12:00:50;;;;;;;17.37;10.40;;;5.30;99.90;;;;;;4410901;32;20163;-74
2020/12/06 12:03:17;;;;;;;18.20;10.60;;;5.30;99.90;;;;;;4410752;32;20400;-74
2020/12/06 12:05:43;;;;;;;16.93;10.20;;;5.30;99.90;;;;;;4410850;32;20162;-75
2020/12/06 12:08:09;;;;;;;16.23;10.23;;;5.30;99.90;;;;;;4412326;32;20208;-73
2020/12/06 12:10:36;;;;;;;18.03;10.47;;;5.30;99.90;;;;;;4412319;32;20147;-73
2020/12/06 12:13:02;;;;;;;17.10;10.37;;;5.30;99.90;;;;;;4410154;32;20290;-73
2020/12/06 12:15:29;;;;;;;18.33;10.90;;;5.30;99.90;;;;;;4412275;32;20392;-73
2020/12/06 12:17:56;;;;;;;20.50;10.73;;;5.30;99.90;;;;;;4410953;32;20197;-74
2020/12/06 12:20:22;;;;;;;16.40;10.13;;;5.30;99.90;;;;;;4412584;32;20221;-75
2020/12/06 12:22:49;;;;;;;18.70;10.80;;;5.30;99.90;;;;;;4416373;32;20172;-76
2020/12/06 12:25:15;;;;;;;19.70;10.50;;;5.30;99.90;;;;;;4426472;32;20208;-76
2020/12/06 12:27:42;;;;;;;17.30;10.57;;;5.20;99.90;;;;;;4413145;32;20181;-75
2020/12/06 12:30:10;;;;;;;21.53;10.93;;;5.20;99.90;;;;;;4422896;32;20217;-74
2020/12/06 12:32:36;;;;;;;18.27;11.00;;;5.20;99.90;;;;;;4415486;32;20167;-73
2020/12/06 12:35:03;;;;;;;20.73;11.27;;;5.10;99.90;;;;;;4417168;32;20155;-75
2020/12/06 12:37:29;;;;;;;21.03;11.60;;;5.00;99.90;;;;;;4420756;32;20174;-75
2020/12/06 12:39:56;;;;;;;19.67;11.13;;;5.00;99.90;;;;;;4414185;32;20183;-74
2020/12/06 12:42:22;;;;;;;18.73;10.77;;;5.00;99.90;;;;;;4421904;32;20144;-75